Time;durP1;ratioP1;P1;durP2;ratioP2;P2;SDS_P1;SDS_P2;PMS_P1;PMS_P2;Temp;Humidity;BMP_temperature;BMP_pressure;BME280_temperature;BME280_humidity;BME280_pressure;Samples;Min_cycle;Max_cycle;Signal;HPM_P1;HPM_P2
2022/09/16 00:02:06;;;;;;;;;;;;;;;22.49;80.64;99725.84;4957507;29;19929;-80
2022/09/16 00:04:31;;;;;;;;;;;;;;;22.63;79.78;99719.69;4957657;29;19918;-80
2022/09/16 00:06:57;;;;;;;;;;;;;;;22.62;79.53;99728.66;4957854;29;19919;-78
2022/09/16 00:09:22;;;;;;;;;;;;;;;22.75;78.53;99749.28;4958053;29;19973;-79
2022/09/16 00:11:47;;;;;;;;;;;;;;;22.71;78.26;99754.28;4957516;29;20318;-78
2022/09/16 00:14:12;;;;;;;;;;;;;;;22.75;77.70;99744.41;4957457;29;20424;-80
2022/09/16 00:16:38;;;;;;;;;;;;;;;22.72;77.12;99738.84;4957697;29;20382;-79
2022/09/16 00:19:03;;;;;;;;;;;;;;;22.67;77.10;99736.59;4957367;29;20393;-79
2022/09/16 00:21:29;;;;;;;;;;;;;;;22.73;76.44;99741.22;4957285;29;20377;-78
2022/09/16 00:23:55;;;;;;;;;;;;;;;22.74;76.10;99722.16;4956934;29;19925;-80
2022/09/16 00:26:20;;;;;;;;;;;;;;;22.74;75.03;99713.66;4957723;29;20014;-80
2022/09/16 00:28:49;;;;;;;;;;;;;;;22.72;74.84;99716.16;4956850;29;20337;-79
2022/09/16 00:31:15;;;;;;;;;;;;;;;22.71;72.39;99725.94;4957402;29;20267;-79
2022/09/16 00:33:41;;;;;;;;;;;;;;;22.77;72.90;99729.75;4957109;29;19946;-79
2022/09/16 00:36:08;;;;;;;;;;;;;;;22.81;72.87;99733.28;4955921;28;20345;-79
2022/09/16 00:38:34;;;;;;;;;;;;;;;22.84;73.22;99740.84;4956668;29;19922;-78
2022/09/16 00:40:59;;;;;;;;;;;;;;;22.87;72.74;99745.63;4956287;29;19954;-78
2022/09/16 00:43:24;;;;;;;;;;;;;;;22.92;72.77;99755.63;4956537;29;19985;-80
2022/09/16 00:46:01;;;;;;;;;;;;;;;22.93;72.47;99754.38;4957108;29;19967;-80
2022/09/16 00:48:29;;;;;;;;;;;;;;;22.93;72.37;99755.16;4956539;29;19923;-81
2022/09/16 00:51:02;;;;;;;;;;;;;;;23.04;72.10;99740.59;4956492;29;19925;-79
2022/09/16 00:53:44;;;;;;;;;;;;;;;22.98;69.42;99745.28;4956611;29;20424;-80
2022/09/16 00:56:11;;;;;;;;;;;;;;;22.92;70.75;99741.44;4956986;29;19982;-76
2022/09/16 00:58:40;;;;;;;;;;;;;;;22.91;65.17;99728.53;4956878;29;20390;-79
2022/09/16 01:01:05;;;;;;;;;;;;;;;22.91;66.52;99717.16;4956306;29;20377;-79
2022/09/16 01:03:34;;;;;;;;;;;;;;;23.02;64.00;99699.78;4956169;29;20064;-78
2022/09/16 01:05:59;;;;;;;;;;;;;;;22.98;63.80;99708.41;4956226;29;19926;-80
2022/09/16 01:08:25;;;;;;;;;;;;;;;22.95;62.90;99700.78;4956477;29;20007;-80
2022/09/16 01:10:50;;;;;;;;;;;;;;;22.89;63.76;99703.44;4956670;29;20255;-80
2022/09/16 01:13:15;;;;;;;;;;;;;;;22.90;64.64;99704.22;4956627;29;19918;-79
2022/09/16 01:15:47;;;;;;;;;;;;;;;22.89;65.18;99711.16;4956306;29;20370;-77
2022/09/16 01:18:31;;;;;;;;;;;;;;;22.91;65.78;99723.63;4957001;28;19918;-78
2022/09/16 01:21:02;;;;;;;;;;;;;;;22.86;66.30;99715.69;4956777;29;19923;-78
2022/09/16 01:23:46;;;;;;;;;;;;;;;22.87;66.84;99703.06;4956661;29;20012;-77
2022/09/16 01:26:32;;;;;;;;;;;;;;;22.96;64.40;99697.53;4957680;28;19926;-78
2022/09/16 01:29:30;;;;;;;;;;;;;;;22.92;63.35;99696.06;4955853;29;19934;-79
2022/09/16 01:32:03;;;;;;;;;;;;;;;23.05;64.12;99708.13;4924014;29;20018;-78
2022/09/16 01:34:47;;;;;;;;;;;;;;;22.99;63.46;99724.16;4956266;29;20057;-79
2022/09/16 01:37:12;;;;;;;;;;;;;;;22.99;64.11;99732.69;4955624;29;19925;-76
2022/09/16 01:39:40;;;;;;;;;;;;;;;23.04;64.13;99731.31;4955836;29;19923;-78
2022/09/16 01:42:13;;;;;;;;;;;;;;;23.04;64.36;99725.63;4956051;29;20002;-77
2022/09/16 01:44:45;;;;;;;;;;;;;;;23.04;64.16;99720.75;4955804;29;19918;-77
2022/09/16 01:47:11;;;;;;;;;;;;;;;23.10;64.26;99701.09;4956260;28;19941;-77
2022/09/16 01:49:36;;;;;;;;;;;;;;;23.07;64.41;99707.69;4955417;29;20373;-81
2022/09/16 01:52:08;;;;;;;;;;;;;;;23.07;64.18;99711.31;4955889;29;19919;-79
2022/09/16 01:54:46;;;;;;;;;;;;;;;23.08;64.27;99700.78;4955635;29;19919;-79
2022/09/16 01:57:25;;;;;;;;;;;;;;;23.09;64.06;99676.81;4955854;29;19926;-79
2022/09/16 01:59:57;;;;;;;;;;;;;;;23.13;63.21;99686.78;4955501;29;19946;-76
2022/09/16 02:02:37;;;;;;;;;;;;;;;23.22;58.90;99669.00;4955700;29;20413;-80
2022/09/16 02:05:05;;;;;;;;;;;;;;;23.23;58.98;99653.59;4955750;29;20017;-79
2022/09/16 02:07:33;;;;;;;;;;;;;;;23.27;59.23;99643.66;4954797;29;19965;-80
2022/09/16 02:10:05;;;;;;;;;;;;;;;23.31;59.60;99649.22;4955054;29;19918;-79
2022/09/16 02:12:33;;;;;;;;;;;;;;;23.26;60.12;99647.75;4955617;29;19922;-77
2022/09/16 02:15:02;;;;;;;;;;;;;;;23.33;59.14;99652.41;4955590;29;19941;-80
2022/09/16 02:17:27;;;;;;;;;;;;;;;;;;4954989;29;19952;-77
2022/09/16 02:19:59;;;;;;;;;;;;;;;23.40;59.03;99640.75;4955533;29;19919;-78
2022/09/16 02:22:31;;;;;;;;;;;;;;;23.34;59.10;99625.59;4954859;29;19918;-80
2022/09/16 02:24:58;;;;;;;;;;;;;;;23.32;58.68;99611.06;4955104;29;19973;-80
2022/09/16 02:27:26;;;;;;;;;;;;;;;23.47;56.93;99603.56;4955577;29;19918;-79
2022/09/16 02:29:53;;;;;;;;;;;;;;;23.58;56.51;99600.31;4955093;29;20394;-80
2022/09/16 02:32:19;;;;;;;;;;;;;;;23.55;57.18;99595.59;4955095;29;20354;-79
2022/09/16 02:34:46;;;;;;;;;;;;;;;23.60;57.30;99591.34;4954759;29;19923;-79
2022/09/16 02:37:14;;;;;;;;;;;;;;;23.73;57.66;99589.22;4955288;29;19925;-79
2022/09/16 02:39:43;;;;;;;;;;;;;;;23.63;57.11;99587.59;4962295;28;20289;-80
2022/09/16 02:42:09;;;;;;;;;;;;;;;23.61;56.58;99599.41;4975189;28;19918;-78
2022/09/16 02:44:34;;;;;;;;;;;;;;;23.69;56.45;99595.03;4958113;28;19949;-80
2022/09/16 02:47:05;;;;;;;;;;;;;;;23.81;56.71;99601.88;4958443;28;19925;-79
2022/09/16 02:49:38;;;;;;;;;;;;;;;23.78;57.35;99611.31;4957827;28;19918;-79
2022/09/16 02:52:22;;;;;;;;;;;;;;;23.88;56.77;99623.53;4957821;28;19918;-78
2022/09/16 02:54:59;;;;;;;;;;;;;;;23.75;56.34;99615.09;4957566;28;20009;-78
2022/09/16 02:57:24;;;;;;;;;;;;;;;23.83;55.78;99615.59;4958585;28;19925;-78
2022/09/16 02:59:50;;;;;;;;;;;;;;;23.89;54.84;99630.78;4960109;28;20285;-78
2022/09/16 03:02:15;;;;;;;;;;;;;;;23.84;55.18;99620.81;4962128;28;19918;-79
2022/09/16 03:04:40;;;;;;;;;;;;;;;23.86;55.55;99631.69;4961907;28;19918;-79
2022/09/16 03:07:08;;;;;;;;;;;;;;;23.86;54.85;99626.81;4962145;28;19969;-80
2022/09/16 03:09:38;;;;;;;;;;;;;;;23.82;54.95;99643.22;4962115;28;19918;-80
2022/09/16 03:12:14;;;;;;;;;;;;;;;23.83;54.76;99638.34;4979158;28;19941;-79
2022/09/16 03:14:48;;;;;;;;;;;;;;;23.90;54.13;99635.97;4978492;28;20397;-79
2022/09/16 03:17:25;;;;;;;;;;;;;;;23.89;54.99;99637.25;4961955;28;19922;-77
2022/09/16 03:20:00;;;;;;;;;;;;;;;23.81;55.49;99627.44;4961921;28;19922;-78
2022/09/16 03:22:44;;;;;;;;;;;;;;;23.83;55.23;99626.97;4961268;28;19925;-78
2022/09/16 03:25:16;;;;;;;;;;;;;;;23.78;55.50;99626.31;4961242;28;20368;-79
2022/09/16 03:27:47;;;;;;;;;;;;;;;23.77;55.96;99621.13;4960940;28;19918;-79
2022/09/16 03:30:13;;;;;;;;;;;;;;;23.71;56.20;99614.47;4961473;28;20296;-76
2022/09/16 03:32:42;;;;;;;;;;;;;;;23.69;56.32;99611.28;4961367;28;20016;-80
2022/09/16 03:35:11;;;;;;;;;;;;;;;23.63;56.31;99607.47;4961071;28;19929;-76
2022/09/16 03:37:38;;;;;;;;;;;;;;;23.60;56.32;99611.22;4960996;28;19929;-80
2022/09/16 03:40:06;;;;;;;;;;;;;;;23.57;57.01;99603.63;4960614;28;19969;-78
2022/09/16 03:42:32;;;;;;;;;;;;;;;23.56;56.94;99607.72;4961334;28;19925;-75
2022/09/16 03:44:58;;;;;;;;;;;;;;;23.51;57.43;99607.06;4961776;28;19922;-77
2022/09/16 03:47:23;;;;;;;;;;;;;;;23.50;57.72;99611.19;4961443;28;20268;-77
2022/09/16 03:49:49;;;;;;;;;;;;;;;23.45;58.11;99614.63;4977914;28;20341;-77
2022/09/16 03:52:17;;;;;;;;;;;;;;;23.44;58.62;99621.56;4961351;28;19925;-76
2022/09/16 03:54:43;;;;;;;;;;;;;;;23.41;59.14;99625.31;4960685;28;19922;-77
2022/09/16 03:57:08;;;;;;;;;;;;;;;23.40;59.30;99623.75;4961244;28;19977;-77
2022/09/16 03:59:34;;;;;;;;;;;;;;;23.36;59.56;99616.59;4960641;28;20277;-77
2022/09/16 04:01:59;;;;;;;;;;;;;;;23.32;59.57;99613.09;4960535;28;19918;-77
2022/09/16 04:04:24;;;;;;;;;;;;;;;23.21;60.17;99596.50;4960583;28;19972;-77
2022/09/16 04:06:49;;;;;;;;;;;;;;;23.17;59.50;99587.31;4960592;28;19925;-75
2022/09/16 04:09:15;;;;;;;;;;;;;;;23.21;59.03;99587.97;4960508;28;19925;-76
2022/09/16 04:11:41;;;;;;;;;;;;;;;23.21;59.24;99587.97;4959403;28;19918;-78
2022/09/16 04:14:06;;;;;;;;;;;;;;;23.21;58.98;99588.75;4960364;28;20017;-77
2022/09/16 04:16:32;;;;;;;;;;;;;;;23.13;59.41;99586.69;4960559;28;19919;-77
2022/09/16 04:18:57;;;;;;;;;;;;;;;23.04;59.61;99578.09;4960271;28;19965;-77
2022/09/16 04:21:23;;;;;;;;;;;;;;;23.05;59.64;99569.13;4960805;28;19953;-77
2022/09/16 04:23:48;;;;;;;;;;;;;;;23.10;59.99;99559.22;4960075;28;20028;-77
2022/09/16 04:26:14;;;;;;;;;;;;;;;23.05;60.20;99545.63;4960146;28;19918;-80
2022/09/16 04:28:40;;;;;;;;;;;;;;;23.04;60.38;99544.06;4960922;28;19925;-76
2022/09/16 04:31:08;;;;;;;;;;;;;;;23.02;60.96;99524.69;4960551;28;19964;-80
2022/09/16 04:33:34;;;;;;;;;;;;;;;23.00;61.22;99521.50;4960270;28;20365;-80
2022/09/16 04:36:03;;;;;;;;;;;;;;;22.98;61.91;99524.81;4960150;28;19918;-80
2022/09/16 04:38:28;;;;;;;;;;;;;;;23.01;61.92;99545.78;4959886;28;20045;-80
2022/09/16 04:40:58;;;;;;;;;;;;;;;23.04;62.15;99572.44;4959543;28;20017;-79
2022/09/16 04:43:23;;;;;;;;;;;;;;;23.17;62.14;99604.34;4959788;28;20364;-80
2022/09/16 04:45:50;;;;;;;;;;;;;;;23.17;62.63;99605.16;4960121;28;19925;-78
2022/09/16 04:48:16;;;;;;;;;;;;;;;23.21;62.92;99605.00;4959735;28;19919;-80
2022/09/16 04:50:42;;;;;;;;;;;;;;;23.30;62.70;99618.47;4959739;28;19918;-76
2022/09/16 04:53:07;;;;;;;;;;;;;;;23.29;63.01;99633.91;4960222;28;19925;-78
2022/09/16 04:55:32;;;;;;;;;;;;;;;23.34;63.16;99647.50;4960172;28;20428;-79
2022/09/16 04:57:58;;;;;;;;;;;;;;;23.33;63.67;99666.59;4977228;28;20001;-80
2022/09/16 05:00:23;;;;;;;;;;;;;;;23.41;65.90;99644.41;4960099;28;19918;-78
2022/09/16 05:02:49;;;;;;;;;;;;;;;23.37;65.60;99655.88;4959712;28;19918;-77
2022/09/16 05:05:16;;;;;;;;;;;;;;;23.69;69.15;99651.81;4976676;28;19918;-77
2022/09/16 05:07:41;;;;;;;;;;;;;;;23.75;71.62;99652.00;4959842;28;19918;-79
2022/09/16 05:10:07;;;;;;;;;;;;;;;23.82;72.67;99657.44;4959663;28;20257;-79
2022/09/16 05:12:32;;;;;;;;;;;;;;;23.97;76.71;99632.88;4959515;28;20368;-76
2022/09/16 05:14:57;;;;;;;;;;;;;;;23.94;79.46;99659.38;4959807;28;20013;-73
2022/09/16 05:17:23;;;;;;;;;;;;;;;23.93;82.71;99674.84;4959158;28;19956;-75
2022/09/16 05:19:48;;;;;;;;;;;;;;;23.96;85.77;99653.22;4959067;28;19918;-72
2022/09/16 05:22:13;;;;;;;;;;;;;;;23.87;87.73;99602.84;4958887;28;19918;-76
2022/09/16 05:24:38;;;;;;;;;;;;;;;23.80;88.92;99569.03;4958971;28;19940;-76
2022/09/16 05:27:04;;;;;;;;;;;;;;;23.73;89.56;99543.78;4958502;28;20012;-76
2022/09/16 05:29:29;;;;;;;;;;;;;;;23.71;89.91;99520.75;4958594;28;19922;-76
2022/09/16 05:31:54;;;;;;;;;;;;;;;23.47;90.23;99511.94;4958760;28;19918;-76
2022/09/16 05:34:21;;;;;;;;;;;;;;;23.29;90.64;99504.16;4958383;28;19919;-77
2022/09/16 05:36:48;;;;;;;;;;;;;;;23.13;91.50;99501.56;4958350;28;19922;-78
2022/09/16 05:39:17;;;;;;;;;;;;;;;22.99;91.59;99520.69;4975923;28;20274;-78
2022/09/16 05:41:43;;;;;;;;;;;;;;;22.87;91.02;99547.06;4958634;28;19989;-75
2022/09/16 05:44:08;;;;;;;;;;;;;;;22.88;90.45;99567.75;4976119;28;20393;-77
2022/09/16 05:46:34;;;;;;;;;;;;;;;22.77;90.78;99570.94;4959063;28;20392;-77
2022/09/16 05:48:59;;;;;;;;;;;;;;;22.74;90.89;99578.34;4942688;28;19968;-79
2022/09/16 05:51:25;;;;;;;;;;;;;;;22.87;91.20;99614.34;4958194;28;20357;-80
2022/09/16 05:53:51;;;;;;;;;;;;;;;23.04;91.59;99634.84;4958162;28;19925;-79
2022/09/16 05:56:20;;;;;;;;;;;;;;;22.97;90.47;99641.56;4958110;28;19982;-80
2022/09/16 05:58:46;;;;;;;;;;;;;;;22.91;90.47;99669.75;4958538;28;19948;-79
2022/09/16 06:01:15;;;;;;;;;;;;;;;22.83;90.35;99688.22;4957995;28;19918;-79
2022/09/16 06:03:42;;;;;;;;;;;;;;;22.85;90.38;99697.09;4957948;28;19925;-80
2022/09/16 06:06:11;;;;;;;;;;;;;;;22.77;89.98;99684.38;4958470;28;19922;-77
2022/09/16 06:08:37;;;;;;;;;;;;;;;22.65;90.70;99659.72;4958479;28;19926;-79
2022/09/16 06:11:03;;;;;;;;;;;;;;;22.81;90.08;99641.72;4958122;28;20316;-78
2022/09/16 06:13:29;;;;;;;;;;;;;;;22.84;89.75;99650.09;4975097;28;19918;-79
2022/09/16 06:15:55;;;;;;;;;;;;;;;22.82;89.77;99675.28;4958022;28;20266;-78
2022/09/16 06:18:21;;;;;;;;;;;;;;;22.74;90.34;99710.81;4975023;28;19918;-78
2022/09/16 06:20:46;;;;;;;;;;;;;;;22.75;91.00;99758.59;4957913;28;19922;-78
2022/09/16 06:23:12;;;;;;;;;;;;;;;22.72;91.29;99716.16;4974889;28;19918;-75
2022/09/16 06:25:38;;;;;;;;;;;;;;;22.58;89.43;99696.78;4974688;28;19918;-75
2022/09/16 06:28:03;;;;;;;;;;;;;;;22.53;89.64;99729.38;4975369;28;19954;-76
2022/09/16 06:30:29;;;;;;;;;;;;;;;22.34;90.61;99690.72;4958033;28;19918;-74
2022/09/16 06:32:54;;;;;;;;;;;;;;;22.13;90.84;99690.16;4958128;28;19925;-74
2022/09/16 06:35:20;;;;;;;;;;;;;;;21.95;91.22;99689.94;4956932;28;19926;-76
2022/09/16 06:38:04;;;;;;;;;;;;;;;21.85;93.77;99717.31;4958616;28;20265;-74
2022/09/16 06:40:29;;;;;;;;;;;;;;;21.79;99.20;99727.63;4957224;28;19972;-76
2022/09/16 06:42:54;;;;;;;;;;;;;;;21.75;100.00;99695.00;4957729;28;19924;-77
2022/09/16 06:45:23;;;;;;;;;;;;;;;21.91;100.00;99694.91;4957666;28;19926;-76
2022/09/16 06:47:49;;;;;;;;;;;;;;;21.92;100.00;99685.94;4958269;28;20369;-76
2022/09/16 06:50:14;;;;;;;;;;;;;;;21.87;100.00;99678.00;4957714;28;19918;-76
2022/09/16 06:52:40;;;;;;;;;;;;;;;21.98;99.97;99674.84;4957880;28;19918;-76
2022/09/16 06:55:05;;;;;;;;;;;;;;;21.89;97.18;99691.72;4957359;28;20377;-76
2022/09/16 06:57:30;;;;;;;;;;;;;;;21.90;97.41;99682.78;4957308;28;19918;-76
2022/09/16 06:59:56;;;;;;;;;;;;;;;21.93;96.41;99676.19;4957271;28;19961;-75
2022/09/16 07:02:22;;;;;;;;;;;;;;;22.03;97.30;99699.78;4957265;28;19918;-75
2022/09/16 07:04:48;;;;;;;;;;;;;;;22.13;97.91;99697.88;4957371;28;19926;-75
2022/09/16 07:07:13;;;;;;;;;;;;;;;22.14;97.04;99697.41;4957292;28;19918;-75
2022/09/16 07:09:46;;;;;;;;;;;;;;;22.13;95.15;99687.34;4957351;28;19926;-77
2022/09/16 07:12:11;;;;;;;;;;;;;;;22.12;96.15;99713.28;4974388;28;19926;-76
2022/09/16 07:14:36;;;;;;;;;;;;;;;22.09;96.96;99702.81;4957370;28;20365;-77
2022/09/16 07:17:02;;;;;;;;;;;;;;;22.11;96.77;99694.72;4957804;28;19984;-76
2022/09/16 07:19:27;;;;;;;;;;;;;;;22.13;97.55;99709.22;4957376;28;20391;-77
2022/09/16 07:21:53;;;;;;;;;;;;;;;22.25;98.41;99699.91;4957146;28;20388;-76
2022/09/16 07:24:18;;;;;;;;;;;;;;;22.31;98.95;99706.56;4957037;28;19918;-75
2022/09/16 07:26:44;;;;;;;;;;;;;;;22.39;99.36;99699.44;4957067;28;19918;-76
2022/09/16 07:29:13;;;;;;;;;;;;;;;22.38;98.77;99712.03;4957285;28;19944;-77
2022/09/16 07:31:39;;;;;;;;;;;;;;;22.38;100.00;99703.53;4956968;28;20013;-77
2022/09/16 07:34:05;;;;;;;;;;;;;;;22.35;100.00;99695.13;4956920;28;20016;-76
2022/09/16 07:36:32;;;;;;;;;;;;;;;22.35;100.00;99681.75;4956882;28;20375;-76
2022/09/16 07:38:58;;;;;;;;;;;;;;;22.53;100.00;99680.34;4957405;28;20357;-77
2022/09/16 07:41:28;;;;;;;;;;;;;;;22.67;100.00;99689.19;4956984;28;19918;-74
2022/09/16 07:43:54;;;;;;;;;;;;;;;22.88;100.00;99689.72;4956879;28;19918;-76
2022/09/16 07:46:20;;;;;;;;;;;;;;;23.08;100.00;99689.41;4959753;28;19925;-77
2022/09/16 07:48:46;;;;;;;;;;;;;;;23.30;100.00;99689.44;4960902;28;20005;-77
2022/09/16 07:51:13;;;;;;;;;;;;;;;23.28;98.60;99687.06;4960339;28;19949;-77
2022/09/16 07:53:39;;;;;;;;;;;;;;;23.15;98.36;99704.13;4960861;28;19918;-76
2022/09/16 07:56:06;;;;;;;;;;;;;;;23.16;97.20;99707.75;4960492;28;20017;-77
2022/09/16 07:58:31;;;;;;;;;;;;;;;23.23;95.31;99716.03;4960698;28;19922;-76
2022/09/16 08:00:57;;;;;;;;;;;;;;;23.15;95.02;99731.72;4960375;28;19961;-77
2022/09/16 08:03:22;;;;;;;;;;;;;;;23.72;93.84;99735.31;4960314;28;19925;-75
2022/09/16 08:05:47;;;;;;;;;;;;;;;23.92;90.70;99737.81;4960041;28;19955;-76
2022/09/16 08:08:13;;;;;;;;;;;;;;;24.30;87.41;99741.16;4959959;28;19922;-76
2022/09/16 08:10:38;;;;;;;;;;;;;;;24.51;85.88;99747.25;4960186;28;19918;-78
2022/09/16 08:13:04;;;;;;;;;;;;;;;25.20;83.88;99754.53;4959931;28;20009;-77
2022/09/16 08:15:29;;;;;;;;;;;;;;;25.30;81.38;99764.63;4959883;28;19918;-78
2022/09/16 08:17:55;;;;;;;;;;;;;;;25.22;80.45;99757.69;4960375;28;19964;-78
2022/09/16 08:20:20;;;;;;;;;;;;;;;25.28;81.04;99781.41;4959814;28;20376;-78
2022/09/16 08:22:46;;;;;;;;;;;;;;;25.22;81.12;99775.53;4959547;28;19918;-79
2022/09/16 08:25:11;;;;;;;;;;;;;;;25.23;81.59;99770.63;4959655;28;19919;-79
2022/09/16 08:27:39;;;;;;;;;;;;;;;25.17;81.90;99761.16;4960059;28;19922;-79
2022/09/16 08:30:04;;;;;;;;;;;;;;;25.39;81.81;99761.00;4959988;28;20005;-80
2022/09/16 08:32:30;;;;;;;;;;;;;;;25.57;81.16;99753.25;4959591;28;20363;-77
2022/09/16 08:34:55;;;;;;;;;;;;;;;26.43;77.47;99757.00;4959905;28;19922;-76
2022/09/16 08:37:21;;;;;;;;;;;;;;;26.82;75.18;99763.59;4959749;28;20076;-76
2022/09/16 08:39:47;;;;;;;;;;;;;;;26.88;72.34;99761.66;4959333;28;19926;-76
2022/09/16 08:42:37;;;;;;;;;;;;;;;27.45;70.42;99778.72;4959535;28;20005;-79
2022/09/16 08:45:02;;;;;;;;;;;;;;;27.55;69.14;99777.38;4959550;28;19925;-79
2022/09/16 08:47:41;;;;;;;;;;;;;;;27.41;69.95;99778.91;4959822;28;20280;-76
2022/09/16 08:50:11;;;;;;;;;;;;;;;27.55;68.21;99782.28;4959449;28;20041;-78
2022/09/16 08:52:39;;;;;;;;;;;;;;;27.40;69.91;99776.53;4959086;28;19922;-78
2022/09/16 08:55:09;;;;;;;;;;;;;;;26.99;71.69;99793.31;4959163;28;19925;-76
2022/09/16 08:57:39;;;;;;;;;;;;;;;26.61;71.49;99791.94;4958401;28;19918;-76
2022/09/16 09:00:07;;;;;;;;;;;;;;;26.03;72.85;99787.34;4958932;28;19918;-77
2022/09/16 09:02:33;;;;;;;;;;;;;;;25.68;75.73;99783.31;4959734;28;19918;-77
2022/09/16 09:04:59;;;;;;;;;;;;;;;25.40;76.93;99780.44;4958807;28;19965;-77
2022/09/16 09:07:36;;;;;;;;;;;;;;;25.26;78.05;99761.94;4958728;28;19918;-78
2022/09/16 09:10:09;;;;;;;;;;;;;;;25.03;80.41;99769.00;4959622;28;20254;-77
2022/09/16 09:12:35;;;;;;;;;;;;;;;24.85;81.86;99774.66;4958987;28;19925;-79
2022/09/16 09:15:00;;;;;;;;;;;;;;;25.00;82.82;99775.66;4958972;28;20016;-75
2022/09/16 09:17:35;;;;;;;;;;;;;;;24.97;82.13;99756.66;4959451;28;19941;-77
2022/09/16 09:20:21;;;;;;;;;;;;;;;25.00;79.28;99767.13;4959476;28;20109;-77
2022/09/16 09:23:03;;;;;;;;;;;;;;;25.20;80.63;99761.00;4958731;28;20361;-77
2022/09/16 09:25:44;;;;;;;;;;;;;;;25.66;78.10;99763.03;4958783;28;20292;-75
2022/09/16 09:28:12;;;;;;;;;;;;;;;26.14;77.04;99758.34;4959246;28;20317;-76
2022/09/16 09:30:40;;;;;;;;;;;;;;;26.27;74.19;99775.28;4958398;28;19922;-77
2022/09/16 09:33:23;;;;;;;;;;;;;;;26.55;74.35;99771.03;4958865;28;19962;-78
2022/09/16 09:35:58;;;;;;;;;;;;;;;26.73;72.97;99769.38;4958618;28;20285;-78
2022/09/16 09:38:37;;;;;;;;;;;;;;;26.81;71.90;99777.09;4958157;28;19918;-79
2022/09/16 09:41:07;;;;;;;;;;;;;;;26.69;71.39;99774.47;4957683;28;19922;-78
2022/09/16 09:43:42;;;;;;;;;;;;;;;26.56;74.07;99772.63;4958594;28;20246;-78
2022/09/16 09:46:26;;;;;;;;;;;;;;;26.53;73.66;99761.41;4958438;28;20317;-79
2022/09/16 09:49:01;;;;;;;;;;;;;;;26.67;70.58;99754.19;4958063;28;19918;-78
2022/09/16 09:51:36;;;;;;;;;;;;;;;27.02;69.84;99746.66;4958465;28;19965;-78
2022/09/16 09:54:13;;;;;;;;;;;;;;;27.33;67.09;99728.38;4958640;28;19981;-79
2022/09/16 09:56:41;;;;;;;;;;;;;;;27.61;67.61;99718.25;4957971;28;20374;-78
2022/09/16 09:59:10;;;;;;;;;;;;;;;28.68;64.51;99720.81;4957949;28;19941;-78
2022/09/16 10:01:35;;;;;;;;;;;;;;;28.40;62.88;99725.34;4958197;28;20341;-77
2022/09/16 10:04:00;;;;;;;;;;;;;;;28.18;63.06;99725.75;4957824;28;19922;-77
2022/09/16 10:06:32;;;;;;;;;;;;;;;28.22;62.72;99729.19;4957954;28;20005;-78
2022/09/16 10:08:57;;;;;;;;;;;;;;;28.22;61.14;99716.97;4957506;28;19922;-79
2022/09/16 10:11:29;;;;;;;;;;;;;;;27.97;62.71;99716.31;4958025;28;19918;-79
2022/09/16 10:13:56;;;;;;;;;;;;;;;28.31;59.06;99708.25;4975139;28;19926;-76
2022/09/16 10:16:25;;;;;;;;;;;;;;;28.52;59.04;99715.63;4958143;28;19925;-77
2022/09/16 10:19:17;;;;;;;;;;;;;;;28.57;57.68;99705.56;4957739;28;19966;-78
2022/09/16 10:21:46;;;;;;;;;;;;;;;29.02;57.18;99701.22;4954336;28;20440;-76
2022/09/16 10:24:30;;;;;;;;;;;;;;;28.45;57.54;99693.16;4957590;28;19918;-77
2022/09/16 10:26:55;;;;;;;;;;;;;;;28.78;56.74;99692.06;4957718;28;19918;-78
2022/09/16 10:29:21;;;;;;;;;;;;;;;28.87;56.74;99677.56;4957325;28;19924;-79
2022/09/16 10:31:47;;;;;;;;;;;;;;;29.28;55.94;99677.56;4958240;28;20020;-80
2022/09/16 10:34:24;;;;;;;;;;;;;;;29.42;54.89;99676.69;4956755;28;19980;-78
2022/09/16 10:37:02;;;;;;;;;;;;;;;29.08;56.10;99670.56;4957917;28;20064;-78
2022/09/16 10:39:28;;;;;;;;;;;;;;;29.07;55.33;99671.88;4957166;28;19926;-80
2022/09/16 10:41:54;;;;;;;;;;;;;;;29.14;56.61;99667.78;4956352;28;19919;-78
2022/09/16 10:44:30;;;;;;;;;;;;;;;29.25;56.04;99667.91;4958002;28;19918;-79
2022/09/16 10:46:58;;;;;;;;;;;;;;;29.57;56.12;99665.91;4957799;28;20369;-80
2022/09/16 10:49:27;;;;;;;;;;;;;;;29.77;56.32;99679.38;4957960;28;20289;-78
2022/09/16 10:51:52;;;;;;;;;;;;;;;29.32;55.26;99689.59;4957655;28;19926;-79
2022/09/16 10:54:27;;;;;;;;;;;;;;;28.94;57.34;99691.50;4957406;28;20365;-79
2022/09/16 10:56:52;;;;;;;;;;;;;;;28.58;58.85;99675.66;4942303;28;19968;-78
2022/09/16 10:59:18;;;;;;;;;;;;;;;28.84;59.85;99675.72;4958238;28;19922;-80
2022/09/16 11:01:48;;;;;;;;;;;;;;;29.04;60.68;99657.78;4957712;28;19925;-78
2022/09/16 11:04:16;;;;;;;;;;;;;;;29.22;62.26;99666.81;4957642;28;19918;-75
2022/09/16 11:06:55;;;;;;;;;;;;;;;29.78;61.43;99675.22;4957133;28;19918;-75
2022/09/16 11:09:20;;;;;;;;;;;;;;;29.93;61.95;99657.84;4957224;28;19918;-77
2022/09/16 11:11:57;;;;;;;;;;;;;;;30.00;61.90;99658.19;4957755;28;19918;-75
2022/09/16 11:14:32;;;;;;;;;;;;;;;29.76;59.73;99637.66;4957956;28;19918;-75
2022/09/16 11:17:03;;;;;;;;;;;;;;;30.89;57.25;99636.28;4957104;28;20014;-79
2022/09/16 11:19:28;;;;;;;;;;;;;;;30.71;55.72;99640.41;4956967;28;20065;-76
2022/09/16 11:21:57;;;;;;;;;;;;;;;30.56;55.20;99617.59;4961723;28;19988;-78
2022/09/16 11:24:31;;;;;;;;;;;;;;;30.75;54.29;99618.75;4961745;28;20354;-77
2022/09/16 11:27:06;;;;;;;;;;;;;;;30.30;53.14;99625.53;4961081;28;20381;-78
2022/09/16 11:29:50;;;;;;;;;;;;;;;31.45;52.40;99640.09;4960746;28;19918;-78
2022/09/16 11:32:35;;;;;;;;;;;;;;;31.58;51.12;99636.72;4961320;28;19918;-77
2022/09/16 11:35:16;;;;;;;;;;;;;;;31.25;51.58;99632.50;4960716;28;19950;-79
2022/09/16 11:37:56;;;;;;;;;;;;;;;30.97;51.53;99632.41;4978052;28;19925;-79
2022/09/16 11:40:54;;;;;;;;;;;;;;;30.90;52.36;99635.00;4977720;28;20003;-78
2022/09/16 11:43:33;;;;;;;;;;;;;;;31.44;50.83;99621.28;4928468;28;19919;-78
2022/09/16 11:46:19;;;;;;;;;;;;;;;31.91;50.13;99612.19;4960483;28;19918;-78
2022/09/16 11:48:52;;;;;;;;;;;;;;;31.41;49.32;99615.78;4960071;28;22764;-79
2022/09/16 11:51:36;;;;;;;;;;;;;;;31.26;49.14;99619.69;4960730;28;19922;-79
2022/09/16 11:54:08;;;;;;;;;;;;;;;30.69;51.75;99614.28;4961465;28;20258;-79
2022/09/16 11:56:42;;;;;;;;;;;;;;;30.65;52.28;99620.25;4960150;28;19918;-81
2022/09/16 11:59:15;;;;;;;;;;;;;;;30.48;53.07;99614.44;4960899;28;20384;-79
2022/09/16 12:01:47;;;;;;;;;;;;;;;30.36;53.32;99614.88;4960426;28;19925;-78
2022/09/16 12:04:25;;;;;;;;;;;;;;;29.89;54.42;99606.50;4960345;28;19918;-78
2022/09/16 12:06:51;;;;;;;;;;;;;;;29.61;54.53;99597.66;4960358;28;19918;-78
2022/09/16 12:09:19;;;;;;;;;;;;;;;29.66;54.97;99588.31;4960148;28;19922;-77
2022/09/16 12:11:47;;;;;;;;;;;;;;;29.36;56.32;99587.03;4960287;28;19926;-78
2022/09/16 12:14:24;;;;;;;;;;;;;;;29.66;55.97;99576.06;4960513;28;19965;-78
2022/09/16 12:16:55;;;;;;;;;;;;;;;29.45;56.65;99564.69;4960245;28;19918;-78
2022/09/16 12:19:30;;;;;;;;;;;;;;;29.67;55.96;99549.78;4960118;28;19918;-78
2022/09/16 12:22:16;;;;;;;;;;;;;;;30.02;55.68;99540.88;4959861;28;20269;-77
2022/09/16 12:24:41;;;;;;;;;;;;;;;30.10;54.96;99534.66;4930570;28;19922;-79
2022/09/16 12:27:13;;;;;;;;;;;;;;;29.64;55.49;99530.72;4960644;28;20029;-79
2022/09/16 12:29:59;;;;;;;;;;;;;;;29.72;55.62;99528.97;4960144;28;19969;-79
2022/09/16 12:32:24;;;;;;;;;;;;;;;29.84;55.25;99540.50;4959080;28;19981;-79
2022/09/16 12:34:55;;;;;;;;;;;;;;;29.85;53.38;99547.81;4960068;28;19918;-79
2022/09/16 12:37:59;;;;;;;;;;;;;;;29.94;53.86;99544.75;4960586;28;19918;-79
2022/09/16 12:40:31;;;;;;;;;;;;;;;29.89;54.10;99542.63;4901280;29;19923;-80
2022/09/16 12:43:14;;;;;;;;;;;;;;;29.92;54.12;99524.38;4917451;29;20018;-79
2022/09/16 12:46:06;;;;;;;;;;;;;;;29.88;53.78;99533.25;4934488;29;19977;-79
2022/09/16 12:48:50;;;;;;;;;;;;;;;29.79;53.98;99535.53;4953169;29;19918;-78
2022/09/16 12:51:35;;;;;;;;;;;;;;;29.59;53.80;99536.44;4956509;29;20373;-79
2022/09/16 12:54:01;;;;;;;;;;;;;;;29.39;54.71;99540.16;4956429;29;20009;-80
2022/09/16 12:56:45;;;;;;;;;;;;;;;29.37;54.64;99549.25;4956675;29;20021;-77
2022/09/16 12:59:19;;;;;;;;;;;;;;;29.11;55.25;99537.81;4956291;29;19919;-79
2022/09/16 13:01:47;;;;;;;;;;;;;;;29.36;54.24;99546.91;4956061;29;19923;-79